createdAt,value
2018-09-17T00:00:38.421Z,76.15
2018-09-17T00:05:31.507Z,76.70
2018-09-17T00:10:24.510Z,75.96
2018-09-17T00:15:17.662Z,76.71
2018-09-17T00:20:11.102Z,76.80
2018-09-17T00:25:04.318Z,76.00
2018-09-17T00:29:57.398Z,76.31
2018-09-17T00:34:50.390Z,76.55
2018-09-17T00:39:43.403Z,77.40
2018-09-17T00:44:36.482Z,78.03
2018-09-17T00:49:29.443Z,77.48
2018-09-17T00:54:22.554Z,78.18
2018-09-17T00:59:15.900Z,77.78
2018-09-17T01:04:09.419Z,77.37
2018-09-17T01:09:02.377Z,76.33
2018-09-17T01:13:56.013Z,75.61
2018-09-17T01:18:49.153Z,74.93
2018-09-17T01:23:42.179Z,74.87
2018-09-17T01:28:35.165Z,74.61
2018-09-17T01:33:28.811Z,74.35
2018-09-17T01:38:21.918Z,74.62
2018-09-17T01:43:15.165Z,74.68
2018-09-17T01:48:09.339Z,74.61
2018-09-17T01:53:02.396Z,74.91
2018-09-17T01:57:55.545Z,74.19
2018-09-17T02:02:48.667Z,73.46
2018-09-17T02:07:41.784Z,73.57
2018-09-17T02:12:35.282Z,73.25
2018-09-17T02:17:28.920Z,72.95
2018-09-17T02:22:21.999Z,72.81
2018-09-17T02:27:15.203Z,72.71
2018-09-17T02:32:08.239Z,73.47
2018-09-17T02:37:01.263Z,73.42
2018-09-17T02:41:54.613Z,73.83
2018-09-17T02:46:47.601Z,74.43
2018-09-17T02:51:40.658Z,74.09
2018-09-17T02:56:33.790Z,73.81
2018-09-17T03:01:26.849Z,73.69
2018-09-17T03:06:20.855Z,74.37
2018-09-17T03:11:14.058Z,74.46
2018-09-17T03:16:07.127Z,74.00
2018-09-17T03:21:01.058Z,73.31
2018-09-17T03:25:54.174Z,73.97
2018-09-17T03:30:47.268Z,73.96
2018-09-17T03:35:43.682Z,73.59
2018-09-17T03:40:37.063Z,73.75
2018-09-17T03:45:30.013Z,73.11
2018-09-17T03:50:23.074Z,73.93
2018-09-17T03:55:16.190Z,75.02
2018-09-17T04:00:09.174Z,74.68
2018-09-17T04:05:03.650Z,74.61
2018-09-17T04:09:56.812Z,75.15
2018-09-17T04:14:49.970Z,75.42
2018-09-17T04:19:43.368Z,75.21
2018-09-17T04:24:36.434Z,75.41
2018-09-17T04:29:30.054Z,75.38
2018-09-17T04:34:23.103Z,74.96
2018-09-17T04:39:18.189Z,74.99
2018-09-17T04:44:11.298Z,74.45
2018-09-17T04:49:04.398Z,73.10
2018-09-17T04:53:57.364Z,73.15
2018-09-17T04:58:51.418Z,72.92
2018-09-17T05:03:44.502Z,73.14
2018-09-17T05:08:37.648Z,73.14
2018-09-17T05:13:31.048Z,73.81
2018-09-17T05:18:26.138Z,74.13
2018-09-17T05:23:19.250Z,74.14
2018-09-17T05:28:12.455Z,73.74
2018-09-17T05:33:05.501Z,72.37
2018-09-17T05:37:58.636Z,72.79
2018-09-17T05:42:51.712Z,72.00
2018-09-17T05:47:44.777Z,71.36
2018-09-17T05:52:37.911Z,71.16
2018-09-17T05:57:31.141Z,70.86
2018-09-17T06:02:24.291Z,69.64
2018-09-17T06:07:17.543Z,69.06
2018-09-17T06:12:10.728Z,69.03
2018-09-17T06:17:04.119Z,68.40
2018-09-17T06:21:57.094Z,66.73
2018-09-17T06:26:50.317Z,64.87
2018-09-17T06:31:43.395Z,64.28
2018-09-17T06:36:36.419Z,63.20
2018-09-17T06:41:30.219Z,62.59
2018-09-17T06:46:24.485Z,60.71
2018-09-17T06:51:17.997Z,56.84
2018-09-17T06:56:11.400Z,56.94
2018-09-17T07:01:04.530Z,57.42
2018-09-17T07:05:57.496Z,57.88
2018-09-17T07:10:50.971Z,55.00
2018-09-17T07:15:44.184Z,55.96
2018-09-17T07:20:37.731Z,56.25
2018-09-17T07:25:31.408Z,56.85
2018-09-17T07:30:24.932Z,56.90
2018-09-17T07:35:18.467Z,54.93
2018-09-17T07:40:11.567Z,54.81
2018-09-17T07:45:08.417Z,55.58
2018-09-17T07:50:01.465Z,51.73
2018-09-17T07:54:54.566Z,52.23
2018-09-17T07:59:47.744Z,51.16
2018-09-17T08:04:42.336Z,51.25
2018-09-17T08:09:35.519Z,48.31
2018-09-17T08:14:28.557Z,49.19
2018-09-17T08:19:21.758Z,48.89
2018-09-17T08:24:14.864Z,45.19
2018-09-17T08:29:08.176Z,46.74
2018-09-17T08:34:02.087Z,46.70
2018-09-17T08:38:56.179Z,47.22
2018-09-17T08:43:49.356Z,47.48
2018-09-17T08:48:44.967Z,47.74
2018-09-17T08:53:38.144Z,46.76
2018-09-17T08:58:34.177Z,47.57
2018-09-17T09:03:32.801Z,48.04
2018-09-17T09:08:25.874Z,50.97
2018-09-17T09:13:24.546Z,49.22
2018-09-17T09:18:20.055Z,47.38
2018-09-17T09:23:13.522Z,49.14
2018-09-17T09:28:06.634Z,48.58
2018-09-17T09:33:00.224Z,46.05
2018-09-17T09:37:53.463Z,45.83
2018-09-17T09:42:46.535Z,46.85
2018-09-17T09:47:39.723Z,46.63
2018-09-17T09:52:32.833Z,47.03
2018-09-17T09:57:25.959Z,44.80
2018-09-17T10:02:24.519Z,43.39
2018-09-17T10:07:18.493Z,44.91
2018-09-17T10:12:16.841Z,44.19
2018-09-17T10:17:15.353Z,44.93
2018-09-17T10:22:08.476Z,43.10
2018-09-17T10:27:01.564Z,44.12
2018-09-17T10:31:54.590Z,43.84
2018-09-17T10:36:47.693Z,44.33
2018-09-17T10:41:41.314Z,43.23
2018-09-17T10:46:34.719Z,41.17
2018-09-17T10:51:28.827Z,43.49
2018-09-17T10:56:21.861Z,41.99
2018-09-17T11:01:15.886Z,40.76
2018-09-17T11:06:09.078Z,40.88
2018-09-17T11:11:02.529Z,41.60
2018-09-17T11:15:55.706Z,41.90
2018-09-17T11:20:49.600Z,42.77
2018-09-17T11:25:42.759Z,41.56
2018-09-17T11:30:36.220Z,43.46
2018-09-17T11:35:29.286Z,41.56
2018-09-17T11:40:22.713Z,40.53
2018-09-17T11:45:15.752Z,41.96
2018-09-17T11:50:08.926Z,43.31
2018-09-17T11:55:02.271Z,42.59
2018-09-17T11:59:55.740Z,43.70
2018-09-17T12:04:54.627Z,44.10
2018-09-17T12:09:47.775Z,42.39
2018-09-17T12:14:43.567Z,43.15
2018-09-17T12:19:36.655Z,43.04
2018-09-17T12:24:29.726Z,42.21
2018-09-17T12:29:22.953Z,42.97
2018-09-17T12:34:16.066Z,42.93
2018-09-17T12:39:10.256Z,40.79
2018-09-17T12:44:03.591Z,40.86
2018-09-17T12:48:56.736Z,40.30
2018-09-17T12:53:50.002Z,40.47
2018-09-17T12:58:43.150Z,41.14
2018-09-17T13:03:36.197Z,40.55
2018-09-17T13:08:29.396Z,41.07
2018-09-17T13:13:22.777Z,41.98
2018-09-17T13:18:15.970Z,41.39
2018-09-17T13:23:09.219Z,41.22
2018-09-17T13:28:02.435Z,41.11
2018-09-17T13:32:55.863Z,41.66
2018-09-17T13:37:48.895Z,42.42
2018-09-17T13:42:42.045Z,44.24
2018-09-17T13:47:35.318Z,43.07
2018-09-17T13:52:28.555Z,42.82
2018-09-17T13:57:22.019Z,40.99
2018-09-17T14:02:15.250Z,41.00
2018-09-17T14:07:08.728Z,41.74
2018-09-17T14:12:02.153Z,41.44
2018-09-17T14:16:55.347Z,41.44
2018-09-17T14:21:48.860Z,41.59
2018-09-17T14:26:41.996Z,42.54
2018-09-17T14:31:41.447Z,42.67
2018-09-17T14:36:34.770Z,41.77
2018-09-17T14:41:28.121Z,41.94
2018-09-17T14:46:21.878Z,42.90
2018-09-17T14:51:15.569Z,43.18
2018-09-17T14:56:08.696Z,43.66
2018-09-17T15:01:02.292Z,42.35
2018-09-17T15:05:56.879Z,45.43
2018-09-17T15:10:50.126Z,44.00
2018-09-17T15:15:50.743Z,45.68
2018-09-17T15:20:46.506Z,44.07
2018-09-17T15:25:40.043Z,43.85
2018-09-17T15:30:33.580Z,43.91
2018-09-17T15:35:29.427Z,45.76
2018-09-17T15:40:22.630Z,48.43
2018-09-17T15:45:17.072Z,49.76
2018-09-17T15:50:12.728Z,50.19
2018-09-17T15:55:11.954Z,50.71
2018-09-17T16:00:06.578Z,50.69
2018-09-17T16:05:00.956Z,50.92
2018-09-17T16:09:55.380Z,51.06
2018-09-17T16:14:51.944Z,51.49
2018-09-17T16:19:46.819Z,51.42
2018-09-17T16:24:40.490Z,51.28
2018-09-17T16:29:34.258Z,50.98
2018-09-17T16:34:29.869Z,50.87
2018-09-17T16:39:23.574Z,50.67
2018-09-17T16:44:18.024Z,50.01
2018-09-17T16:49:14.665Z,51.10
2018-09-17T16:54:08.184Z,52.20
2018-09-17T16:59:02.708Z,52.40
2018-09-17T17:04:00.914Z,53.44
2018-09-17T17:08:57.848Z,55.05
2018-09-17T17:13:50.991Z,56.19
2018-09-17T17:18:44.474Z,57.28
2018-09-17T17:23:37.631Z,57.41
2018-09-17T17:28:30.926Z,58.60
2018-09-17T17:33:24.186Z,58.82
2018-09-17T17:38:21.329Z,59.96
2018-09-17T17:43:15.187Z,60.25
2018-09-17T17:48:09.312Z,60.90
2018-09-17T17:53:02.567Z,61.31
2018-09-17T17:57:56.279Z,61.65
2018-09-17T18:02:49.633Z,62.23
2018-09-17T18:07:43.667Z,62.96
2018-09-17T18:12:37.757Z,62.73
2018-09-17T18:17:31.918Z,62.92
2018-09-17T18:22:25.405Z,63.15
2018-09-17T18:27:18.580Z,63.04
2018-09-17T18:32:12.410Z,63.25
2018-09-17T18:37:06.165Z,63.18
2018-09-17T18:42:00.076Z,62.81
2018-09-17T18:46:53.391Z,63.03
2018-09-17T18:51:47.853Z,62.31
2018-09-17T18:56:42.509Z,62.96
2018-09-17T19:01:36.740Z,63.00
2018-09-17T19:06:31.104Z,62.26
2018-09-17T19:11:25.554Z,62.14
2018-09-17T19:16:23.994Z,61.13
2018-09-17T19:21:17.335Z,61.35
2018-09-17T19:26:10.784Z,62.20
2018-09-17T19:31:04.795Z,62.73
2018-09-17T19:35:59.303Z,62.94
2018-09-17T19:40:52.717Z,63.62
2018-09-17T19:45:53.073Z,64.81
2018-09-17T19:50:51.993Z,66.36
2018-09-17T19:55:45.876Z,66.72
2018-09-17T20:00:40.230Z,67.33
2018-09-17T20:05:39.891Z,68.83
2018-09-17T20:10:33.879Z,69.69
2018-09-17T20:15:27.340Z,71.14
2018-09-17T20:20:20.653Z,71.39
2018-09-17T20:25:15.524Z,71.58
2018-09-17T20:30:08.948Z,71.57
2018-09-17T20:35:02.508Z,72.07
2018-09-17T20:39:57.842Z,72.77
2018-09-17T20:44:52.857Z,72.96
2018-09-17T20:49:47.176Z,73.08
2018-09-17T20:54:40.242Z,73.12
2018-09-17T20:59:34.941Z,73.37
2018-09-17T21:04:28.211Z,73.65
2018-09-17T21:09:22.140Z,74.02
2018-09-17T21:14:16.152Z,74.30
2018-09-17T21:19:10.603Z,73.97
2018-09-17T21:24:04.144Z,74.39
2018-09-17T21:28:59.582Z,74.50
2018-09-17T21:33:53.451Z,74.60
2018-09-17T21:38:48.856Z,74.80
2018-09-17T21:43:43.077Z,75.01
2018-09-17T21:48:36.706Z,75.06
2018-09-17T21:53:33.036Z,75.78
2018-09-17T21:58:30.770Z,74.97
2018-09-17T22:03:24.527Z,74.97
2018-09-17T22:08:18.038Z,75.67
2018-09-17T22:13:11.259Z,75.59
2018-09-17T22:18:04.405Z,76.27
2018-09-17T22:22:57.494Z,76.38
2018-09-17T22:27:50.491Z,76.47
2018-09-17T22:32:43.502Z,76.69
2018-09-17T22:37:36.615Z,75.97
2018-09-17T22:42:30.036Z,76.66
2018-09-17T22:47:23.113Z,76.48
2018-09-17T22:52:16.126Z,76.89
2018-09-17T22:57:09.270Z,76.78
2018-09-17T23:02:02.344Z,76.47
2018-09-17T23:06:55.311Z,76.24
2018-09-17T23:11:48.505Z,76.37
2018-09-17T23:16:41.619Z,76.61
2018-09-17T23:21:34.808Z,77.32
2018-09-17T23:26:28.054Z,77.68
2018-09-17T23:31:21.565Z,77.45
2018-09-17T23:36:14.773Z,76.98
2018-09-17T23:41:07.943Z,77.33
2018-09-17T23:46:01.190Z,77.59
2018-09-17T23:50:54.371Z,77.68
2018-09-17T23:55:47.418Z,77.31
